Terminal Aerodrome Forecast
Issued by NWS

Home | Current Version | Previous Version | Text Only | Print | Product List | Glossary On
Versions: 1 2 3 4 5 6 7 8 9 10 11 12 13 14 15 16 17 18 19 20 21
629
FTUS46 KSGX 282142 AAB
TAFCRQ
TAF AMD
KCRQ 282142Z 2822/2918 26007KT P6SM BKN014
     FM282330 VRB04KT P6SM SCT012
     FM290500 VRB04KT P6SM OVC010
     FM291700 VRB04KT P6SM SCT012=

USA.gov is the U.S. government's official web portal to all federal, state and local government web resources and services.